Shimanami Star — C6VN9 — position and weather

sailwx.info

Track history (hours):
 
Tides and Currents Weather Stations Pressure Air Temp Water Temp Dewpoint Dewpoint Depression Visibility Wind Speed Wind Dir Waves Ship Positions

Shimanami Star

Last reported at 2014-Sep-05 21:26 UTC. Time now 2014-Sep-16 15:33 UTC.
Position N 25°05' W 118°28'.
Warning: this ship's position is 10 days out of date.

Length 170 m; draft 8.4 m.

Type: Cargo ship. MMSI: 309116000.

Date/timePositionNaut miles runAvg speedWind from/ knotsBaromVisibWave heightAir tempDewpointWater temp
2014-Sep-05 21:26N 25°05' W 118°28'15611.9
2014-Sep-05 08:18N 27°17' W 120°01'912.1
2014-Sep-05 07:33N 27°25' W 120°07'1412.0
2014-Sep-05 06:25N 27°36' W 120°15'1112.1
2014-Sep-05 05:29N 27°46' W 120°22'1112.0
2014-Sep-05 04:33N 27°55' W 120°29'3812.1
2014-Sep-05 01:25N 28°27' W 120°52'1412.2
2014-Sep-05 00:18N 28°39' W 121°00'8612.2
2014-Sep-04 17:17N 29°51' W 121°53'3412.2
2014-Sep-04 14:30N 30°18' W 122°16'1212.2
2014-Sep-04 13:33N 30°28' W 122°24'2612.1
2014-Sep-04 11:26N 30°48' W 122°42'1712.2
2014-Sep-04 10:03N 31°02' W 122°53'2212.1
2014-Sep-04 08:12N 31°18' W 123°12'3312.0
2014-Sep-04 05:25N 31°38' W 123°43'1112.0
2014-Sep-04 04:28N 31°45' W 123°53'  
Track history (hours):
 
Tides and Currents Weather Stations Pressure Air Temp Water Temp Dewpoint Dewpoint Depression Visibility Wind Speed Wind Dir Waves Ship Positions

Shimanami Star

Last reported at 2014-Sep-05 21:26 UTC. Time now 2014-Sep-16 15:33 UTC.
Position N 25°05' W 118°28'.
Warning: this ship's position is 10 days out of date.

Length 170 m; draft 8.4 m.

Type: Cargo ship. MMSI: 309116000.

Date/timePositionNaut miles runAvg speedWind from/ knotsBaromVisibWave heightAir tempDewpointWater temp
2014-Sep-05 21:26N 25°05' W 118°28'15611.9
2014-Sep-05 08:18N 27°17' W 120°01'912.1
2014-Sep-05 07:33N 27°25' W 120°07'1412.0
2014-Sep-05 06:25N 27°36' W 120°15'1112.1
2014-Sep-05 05:29N 27°46' W 120°22'1112.0
2014-Sep-05 04:33N 27°55' W 120°29'3812.1
2014-Sep-05 01:25N 28°27' W 120°52'1412.2
2014-Sep-05 00:18N 28°39' W 121°00'8612.2
2014-Sep-04 17:17N 29°51' W 121°53'3412.2
2014-Sep-04 14:30N 30°18' W 122°16'1212.2
2014-Sep-04 13:33N 30°28' W 122°24'2612.1
2014-Sep-04 11:26N 30°48' W 122°42'1712.2
2014-Sep-04 10:03N 31°02' W 122°53'2212.1
2014-Sep-04 08:12N 31°18' W 123°12'3312.0
2014-Sep-04 05:25N 31°38' W 123°43'1112.0
2014-Sep-04 04:28N 31°45' W 123°53'  

Dump ship's entire track history